sensor_id;sensor_type;location;lat;lon;timestamp;P1;durP1;ratioP1;P2;durP2;ratioP2
21492;SDS011;10908;50.690;4.400;2023-06-04T00:01:39;4.13;;;0.80;;
21492;SDS011;10908;50.690;4.400;2023-06-04T00:04:05;4.05;;;0.80;;
21492;SDS011;10908;50.690;4.400;2023-06-04T00:06:30;4.55;;;0.82;;
21492;SDS011;10908;50.690;4.400;2023-06-04T00:08:56;3.28;;;0.73;;
21492;SDS011;10908;50.690;4.400;2023-06-04T00:11:22;4.18;;;0.80;;
21492;SDS011;10908;50.690;4.400;2023-06-04T00:13:48;3.15;;;0.80;;
21492;SDS011;10908;50.690;4.400;2023-06-04T00:16:13;2.88;;;0.80;;
21492;SDS011;10908;50.690;4.400;2023-06-04T00:18:39;4.50;;;0.98;;
21492;SDS011;10908;50.690;4.400;2023-06-04T00:21:05;3.03;;;0.70;;
21492;SDS011;10908;50.690;4.400;2023-06-04T00:23:31;3.42;;;0.80;;
21492;SDS011;10908;50.690;4.400;2023-06-04T00:25:56;3.72;;;1.00;;
21492;SDS011;10908;50.690;4.400;2023-06-04T00:28:22;3.80;;;1.00;;
21492;SDS011;10908;50.690;4.400;2023-06-04T00:30:47;4.72;;;0.90;;
21492;SDS011;10908;50.690;4.400;2023-06-04T00:33:13;3.25;;;0.80;;
21492;SDS011;10908;50.690;4.400;2023-06-04T00:35:39;3.08;;;0.90;;
21492;SDS011;10908;50.690;4.400;2023-06-04T00:38:04;7.78;;;1.17;;
21492;SDS011;10908;50.690;4.400;2023-06-04T00:40:30;3.28;;;1.00;;
21492;SDS011;10908;50.690;4.400;2023-06-04T00:42:56;4.50;;;0.90;;
21492;SDS011;10908;50.690;4.400;2023-06-04T00:45:21;2.53;;;0.75;;
21492;SDS011;10908;50.690;4.400;2023-06-04T00:47:51;4.00;;;1.30;;
21492;SDS011;10908;50.690;4.400;2023-06-04T00:50:17;8.95;;;1.13;;
21492;SDS011;10908;50.690;4.400;2023-06-04T00:52:45;4.28;;;0.90;;
21492;SDS011;10908;50.690;4.400;2023-06-04T00:55:12;6.57;;;1.02;;
21492;SDS011;10908;50.690;4.400;2023-06-04T00:57:37;2.85;;;0.80;;
21492;SDS011;10908;50.690;4.400;2023-06-04T01:00:03;3.95;;;1.00;;
21492;SDS011;10908;50.690;4.400;2023-06-04T01:02:31;3.08;;;0.73;;
21492;SDS011;10908;50.690;4.400;2023-06-04T01:05:02;2.85;;;0.80;;
21492;SDS011;10908;50.690;4.400;2023-06-04T01:07:47;4.15;;;1.10;;
21492;SDS011;10908;50.690;4.400;2023-06-04T01:10:14;3.10;;;1.00;;
21492;SDS011;10908;50.690;4.400;2023-06-04T01:12:40;4.82;;;0.95;;
21492;SDS011;10908;50.690;4.400;2023-06-04T01:15:07;2.97;;;0.90;;
21492;SDS011;10908;50.690;4.400;2023-06-04T01:17:35;3.95;;;1.00;;
21492;SDS011;10908;50.690;4.400;2023-06-04T01:25:40;3.47;;;1.00;;
21492;SDS011;10908;50.690;4.400;2023-06-04T01:28:09;3.40;;;0.80;;
21492;SDS011;10908;50.690;4.400;2023-06-04T01:30:41;3.22;;;0.75;;
21492;SDS011;10908;50.690;4.400;2023-06-04T01:33:11;3.20;;;0.88;;
21492;SDS011;10908;50.690;4.400;2023-06-04T01:35:38;3.30;;;1.05;;
21492;SDS011;10908;50.690;4.400;2023-06-04T01:38:04;3.03;;;0.88;;
21492;SDS011;10908;50.690;4.400;2023-06-04T01:40:31;5.40;;;1.00;;
21492;SDS011;10908;50.690;4.400;2023-06-04T01:42:57;6.00;;;1.00;;
21492;SDS011;10908;50.690;4.400;2023-06-04T01:45:23;3.22;;;0.90;;
21492;SDS011;10908;50.690;4.400;2023-06-04T01:47:50;5.13;;;1.20;;
21492;SDS011;10908;50.690;4.400;2023-06-04T01:50:16;5.38;;;1.00;;
21492;SDS011;10908;50.690;4.400;2023-06-04T01:52:43;3.10;;;1.10;;
21492;SDS011;10908;50.690;4.400;2023-06-04T01:55:10;3.10;;;1.02;;
21492;SDS011;10908;50.690;4.400;2023-06-04T01:57:37;3.97;;;1.10;;
21492;SDS011;10908;50.690;4.400;2023-06-04T02:00:06;5.15;;;1.30;;
21492;SDS011;10908;50.690;4.400;2023-06-04T02:02:34;4.75;;;1.10;;
21492;SDS011;10908;50.690;4.400;2023-06-04T02:05:06;3.42;;;1.00;;
21492;SDS011;10908;50.690;4.400;2023-06-04T02:07:33;2.80;;;0.88;;
21492;SDS011;10908;50.690;4.400;2023-06-04T02:10:12;4.35;;;1.15;;
21492;SDS011;10908;50.690;4.400;2023-06-04T02:12:40;5.03;;;1.05;;
21492;SDS011;10908;50.690;4.400;2023-06-04T02:15:06;8.20;;;2.05;;
21492;SDS011;10908;50.690;4.400;2023-06-04T02:17:34;7.85;;;1.20;;
21492;SDS011;10908;50.690;4.400;2023-06-04T02:20:07;4.07;;;1.20;;
21492;SDS011;10908;50.690;4.400;2023-06-04T02:22:34;4.30;;;1.02;;
21492;SDS011;10908;50.690;4.400;2023-06-04T02:25:00;4.95;;;1.45;;
21492;SDS011;10908;50.690;4.400;2023-06-04T02:27:26;3.95;;;1.35;;
21492;SDS011;10908;50.690;4.400;2023-06-04T02:29:51;4.40;;;1.00;;
21492;SDS011;10908;50.690;4.400;2023-06-04T02:32:17;8.52;;;1.30;;
21492;SDS011;10908;50.690;4.400;2023-06-04T02:34:43;4.75;;;1.20;;
21492;SDS011;10908;50.690;4.400;2023-06-04T02:37:09;4.15;;;1.20;;
21492;SDS011;10908;50.690;4.400;2023-06-04T02:39:35;3.88;;;1.30;;
21492;SDS011;10908;50.690;4.400;2023-06-04T02:42:00;4.65;;;1.27;;
21492;SDS011;10908;50.690;4.400;2023-06-04T02:44:26;4.40;;;1.30;;
21492;SDS011;10908;50.690;4.400;2023-06-04T02:46:54;4.18;;;1.35;;
21492;SDS011;10908;50.690;4.400;2023-06-04T02:49:20;4.57;;;1.50;;
21492;SDS011;10908;50.690;4.400;2023-06-04T02:51:46;5.15;;;1.50;;
21492;SDS011;10908;50.690;4.400;2023-06-04T02:54:12;5.47;;;1.50;;
21492;SDS011;10908;50.690;4.400;2023-06-04T02:56:37;3.22;;;1.45;;
21492;SDS011;10908;50.690;4.400;2023-06-04T02:59:04;5.47;;;1.40;;
21492;SDS011;10908;50.690;4.400;2023-06-04T03:01:30;5.75;;;1.60;;
21492;SDS011;10908;50.690;4.400;2023-06-04T03:03:56;4.32;;;1.38;;
21492;SDS011;10908;50.690;4.400;2023-06-04T03:06:22;4.55;;;1.60;;
21492;SDS011;10908;50.690;4.400;2023-06-04T03:08:49;5.88;;;1.85;;
21492;SDS011;10908;50.690;4.400;2023-06-04T03:11:15;4.93;;;1.48;;
21492;SDS011;10908;50.690;4.400;2023-06-04T03:13:41;4.90;;;1.70;;
21492;SDS011;10908;50.690;4.400;2023-06-04T03:16:07;11.50;;;1.77;;
21492;SDS011;10908;50.690;4.400;2023-06-04T03:18:36;6.38;;;1.92;;
21492;SDS011;10908;50.690;4.400;2023-06-04T15:54:58;6.57;;;1.20;;
21492;SDS011;10908;50.690;4.400;2023-06-04T15:57:24;5.07;;;1.02;;
21492;SDS011;10908;50.690;4.400;2023-06-04T15:59:50;3.90;;;1.20;;
21492;SDS011;10908;50.690;4.400;2023-06-04T16:02:15;4.75;;;1.27;;
21492;SDS011;10908;50.690;4.400;2023-06-04T16:04:41;5.78;;;1.15;;
21492;SDS011;10908;50.690;4.400;2023-06-04T16:07:07;3.30;;;1.00;;
21492;SDS011;10908;50.690;4.400;2023-06-04T16:09:32;3.72;;;1.10;;
21492;SDS011;10908;50.690;4.400;2023-06-04T16:11:58;7.53;;;1.30;;
21492;SDS011;10908;50.690;4.400;2023-06-04T16:14:24;3.70;;;1.00;;
21492;SDS011;10908;50.690;4.400;2023-06-04T16:16:49;3.85;;;1.10;;
21492;SDS011;10908;50.690;4.400;2023-06-04T16:19:15;6.18;;;1.23;;
21492;SDS011;10908;50.690;4.400;2023-06-04T16:21:41;4.15;;;1.10;;
21492;SDS011;10908;50.690;4.400;2023-06-04T16:24:06;4.22;;;1.08;;
21492;SDS011;10908;50.690;4.400;2023-06-04T16:26:32;3.67;;;1.10;;
21492;SDS011;10908;50.690;4.400;2023-06-04T16:28:58;8.18;;;1.38;;
21492;SDS011;10908;50.690;4.400;2023-06-04T16:31:23;2.92;;;1.20;;
21492;SDS011;10908;50.690;4.400;2023-06-04T16:33:49;6.43;;;1.00;;
21492;SDS011;10908;50.690;4.400;2023-06-04T16:36:14;3.05;;;1.02;;
21492;SDS011;10908;50.690;4.400;2023-06-04T16:38:40;7.93;;;1.10;;
21492;SDS011;10908;50.690;4.400;2023-06-04T16:41:06;7.50;;;1.15;;
21492;SDS011;10908;50.690;4.400;2023-06-04T16:43:31;4.00;;;1.10;;
21492;SDS011;10908;50.690;4.400;2023-06-04T16:45:57;4.07;;;1.00;;
21492;SDS011;10908;50.690;4.400;2023-06-04T16:48:23;3.85;;;1.20;;
21492;SDS011;10908;50.690;4.400;2023-06-04T16:50:49;3.50;;;1.10;;
21492;SDS011;10908;50.690;4.400;2023-06-04T16:53:14;3.40;;;1.20;;
21492;SDS011;10908;50.690;4.400;2023-06-04T16:55:40;4.97;;;1.30;;
21492;SDS011;10908;50.690;4.400;2023-06-04T16:58:06;3.40;;;1.10;;
21492;SDS011;10908;50.690;4.400;2023-06-04T17:00:32;4.65;;;1.02;;
21492;SDS011;10908;50.690;4.400;2023-06-04T17:02:57;6.28;;;1.17;;
21492;SDS011;10908;50.690;4.400;2023-06-04T17:05:24;4.47;;;1.05;;
21492;SDS011;10908;50.690;4.400;2023-06-04T17:07:50;4.53;;;1.15;;
21492;SDS011;10908;50.690;4.400;2023-06-04T17:10:16;3.53;;;1.20;;
21492;SDS011;10908;50.690;4.400;2023-06-04T17:12:41;4.75;;;1.15;;
21492;SDS011;10908;50.690;4.400;2023-06-04T17:15:08;6.63;;;1.10;;
21492;SDS011;10908;50.690;4.400;2023-06-04T17:17:34;4.70;;;1.15;;
21492;SDS011;10908;50.690;4.400;2023-06-04T17:19:59;4.55;;;1.20;;
21492;SDS011;10908;50.690;4.400;2023-06-04T17:22:25;5.88;;;1.17;;
21492;SDS011;10908;50.690;4.400;2023-06-04T17:24:51;4.03;;;0.98;;
21492;SDS011;10908;50.690;4.400;2023-06-04T17:27:17;2.95;;;1.08;;
21492;SDS011;10908;50.690;4.400;2023-06-04T17:29:43;5.25;;;1.30;;
21492;SDS011;10908;50.690;4.400;2023-06-04T17:32:10;4.38;;;1.10;;
21492;SDS011;10908;50.690;4.400;2023-06-04T17:34:36;3.88;;;0.93;;
21492;SDS011;10908;50.690;4.400;2023-06-04T17:37:02;4.40;;;1.35;;
21492;SDS011;10908;50.690;4.400;2023-06-04T17:39:32;5.18;;;1.25;;
21492;SDS011;10908;50.690;4.400;2023-06-04T17:41:58;3.53;;;1.40;;
21492;SDS011;10908;50.690;4.400;2023-06-04T17:44:24;3.90;;;1.20;;
21492;SDS011;10908;50.690;4.400;2023-06-04T17:46:50;4.22;;;1.30;;
21492;SDS011;10908;50.690;4.400;2023-06-04T17:49:15;5.18;;;1.30;;
21492;SDS011;10908;50.690;4.400;2023-06-04T17:51:41;4.60;;;1.13;;
21492;SDS011;10908;50.690;4.400;2023-06-04T17:54:07;7.22;;;1.30;;
21492;SDS011;10908;50.690;4.400;2023-06-04T17:56:33;3.53;;;1.10;;
21492;SDS011;10908;50.690;4.400;2023-06-04T17:59:01;5.60;;;1.40;;
21492;SDS011;10908;50.690;4.400;2023-06-04T18:01:30;6.82;;;1.25;;
21492;SDS011;10908;50.690;4.400;2023-06-04T18:03:59;4.43;;;1.50;;
21492;SDS011;10908;50.690;4.400;2023-06-04T18:06:25;4.30;;;1.33;;
21492;SDS011;10908;50.690;4.400;2023-06-04T18:08:51;5.20;;;1.42;;
21492;SDS011;10908;50.690;4.400;2023-06-04T18:11:17;4.80;;;1.45;;
21492;SDS011;10908;50.690;4.400;2023-06-04T18:13:44;6.50;;;1.30;;
21492;SDS011;10908;50.690;4.400;2023-06-04T18:16:10;3.58;;;1.20;;
21492;SDS011;10908;50.690;4.400;2023-06-04T18:18:39;6.70;;;1.50;;
21492;SDS011;10908;50.690;4.400;2023-06-04T18:21:06;6.78;;;1.67;;
21492;SDS011;10908;50.690;4.400;2023-06-04T18:23:31;3.58;;;1.25;;
21492;SDS011;10908;50.690;4.400;2023-06-04T18:25:57;5.05;;;1.48;;
21492;SDS011;10908;50.690;4.400;2023-06-04T18:28:24;5.15;;;1.45;;
21492;SDS011;10908;50.690;4.400;2023-06-04T18:30:49;8.68;;;1.30;;
21492;SDS011;10908;50.690;4.400;2023-06-04T18:33:15;3.70;;;1.42;;
21492;SDS011;10908;50.690;4.400;2023-06-04T18:35:41;3.75;;;1.30;;
21492;SDS011;10908;50.690;4.400;2023-06-04T18:38:06;3.58;;;1.38;;
21492;SDS011;10908;50.690;4.400;2023-06-04T18:40:32;2.80;;;1.02;;
21492;SDS011;10908;50.690;4.400;2023-06-04T18:42:58;5.43;;;1.27;;
21492;SDS011;10908;50.690;4.400;2023-06-04T18:45:23;5.43;;;1.50;;
21492;SDS011;10908;50.690;4.400;2023-06-04T18:47:49;7.05;;;1.38;;
21492;SDS011;10908;50.690;4.400;2023-06-04T18:50:14;4.47;;;1.17;;
21492;SDS011;10908;50.690;4.400;2023-06-04T18:52:40;6.78;;;1.48;;
21492;SDS011;10908;50.690;4.400;2023-06-04T18:55:09;4.13;;;1.75;;
21492;SDS011;10908;50.690;4.400;2023-06-04T18:57:35;4.47;;;1.50;;
21492;SDS011;10908;50.690;4.400;2023-06-04T19:00:01;5.15;;;1.50;;
21492;SDS011;10908;50.690;4.400;2023-06-04T19:02:32;3.47;;;1.30;;
21492;SDS011;10908;50.690;4.400;2023-06-04T19:04:59;5.00;;;1.50;;
21492;SDS011;10908;50.690;4.400;2023-06-04T19:07:25;4.38;;;1.23;;
21492;SDS011;10908;50.690;4.400;2023-06-04T19:09:51;4.93;;;1.60;;
21492;SDS011;10908;50.690;4.400;2023-06-04T19:12:16;3.90;;;1.30;;
21492;SDS011;10908;50.690;4.400;2023-06-04T19:14:42;8.20;;;1.40;;
21492;SDS011;10908;50.690;4.400;2023-06-04T19:17:08;5.00;;;1.42;;
21492;SDS011;10908;50.690;4.400;2023-06-04T19:19:33;6.63;;;1.65;;
21492;SDS011;10908;50.690;4.400;2023-06-04T19:21:59;3.88;;;1.40;;
21492;SDS011;10908;50.690;4.400;2023-06-04T19:24:25;3.58;;;1.30;;
21492;SDS011;10908;50.690;4.400;2023-06-04T19:26:50;4.20;;;1.45;;
21492;SDS011;10908;50.690;4.400;2023-06-04T19:29:16;4.93;;;1.48;;
21492;SDS011;10908;50.690;4.400;2023-06-04T19:31:43;5.35;;;1.30;;
21492;SDS011;10908;50.690;4.400;2023-06-04T19:34:08;4.45;;;1.45;;
21492;SDS011;10908;50.690;4.400;2023-06-04T19:36:34;3.88;;;1.30;;
21492;SDS011;10908;50.690;4.400;2023-06-04T19:39:00;4.63;;;1.35;;
21492;SDS011;10908;50.690;4.400;2023-06-04T19:41:26;4.80;;;1.40;;
21492;SDS011;10908;50.690;4.400;2023-06-04T19:43:52;4.78;;;1.58;;
21492;SDS011;10908;50.690;4.400;2023-06-04T19:46:17;6.00;;;1.65;;
21492;SDS011;10908;50.690;4.400;2023-06-04T19:48:43;3.90;;;1.35;;
21492;SDS011;10908;50.690;4.400;2023-06-04T19:51:09;6.30;;;1.70;;
21492;SDS011;10908;50.690;4.400;2023-06-04T19:53:38;3.53;;;1.45;;
21492;SDS011;10908;50.690;4.400;2023-06-04T19:56:04;7.65;;;1.70;;
21492;SDS011;10908;50.690;4.400;2023-06-04T19:58:30;5.00;;;1.50;;
21492;SDS011;10908;50.690;4.400;2023-06-04T20:00:55;3.92;;;1.50;;
21492;SDS011;10908;50.690;4.400;2023-06-04T20:03:21;5.25;;;1.65;;
21492;SDS011;10908;50.690;4.400;2023-06-04T20:05:47;5.05;;;1.25;;
21492;SDS011;10908;50.690;4.400;2023-06-04T20:08:13;7.93;;;1.73;;
21492;SDS011;10908;50.690;4.400;2023-06-04T20:10:41;3.83;;;1.45;;
21492;SDS011;10908;50.690;4.400;2023-06-04T20:13:07;5.25;;;1.83;;
21492;SDS011;10908;50.690;4.400;2023-06-04T20:15:33;3.97;;;1.65;;
21492;SDS011;10908;50.690;4.400;2023-06-04T20:18:01;4.10;;;1.40;;
21492;SDS011;10908;50.690;4.400;2023-06-04T20:20:27;4.75;;;1.48;;
21492;SDS011;10908;50.690;4.400;2023-06-04T20:22:55;8.88;;;2.65;;
21492;SDS011;10908;50.690;4.400;2023-06-04T20:25:21;7.35;;;1.50;;
21492;SDS011;10908;50.690;4.400;2023-06-04T20:27:47;5.90;;;1.50;;
21492;SDS011;10908;50.690;4.400;2023-06-04T20:30:13;4.03;;;1.48;;
21492;SDS011;10908;50.690;4.400;2023-06-04T20:32:39;5.70;;;1.67;;
21492;SDS011;10908;50.690;4.400;2023-06-04T20:35:05;4.88;;;1.40;;
21492;SDS011;10908;50.690;4.400;2023-06-04T20:37:31;10.05;;;1.70;;
21492;SDS011;10908;50.690;4.400;2023-06-04T20:40:00;4.18;;;1.30;;
21492;SDS011;10908;50.690;4.400;2023-06-04T20:42:26;4.32;;;1.38;;
21492;SDS011;10908;50.690;4.400;2023-06-04T20:44:52;4.97;;;1.55;;
21492;SDS011;10908;50.690;4.400;2023-06-04T20:47:17;8.68;;;1.40;;
21492;SDS011;10908;50.690;4.400;2023-06-04T20:49:43;6.45;;;1.60;;
21492;SDS011;10908;50.690;4.400;2023-06-04T20:52:08;5.55;;;1.50;;
21492;SDS011;10908;50.690;4.400;2023-06-04T20:54:35;4.75;;;1.50;;
21492;SDS011;10908;50.690;4.400;2023-06-04T20:57:00;5.18;;;1.40;;
21492;SDS011;10908;50.690;4.400;2023-06-04T20:59:26;7.55;;;1.83;;
21492;SDS011;10908;50.690;4.400;2023-06-04T21:01:51;5.50;;;1.33;;
21492;SDS011;10908;50.690;4.400;2023-06-04T21:04:17;9.05;;;1.80;;
21492;SDS011;10908;50.690;4.400;2023-06-04T21:06:43;8.15;;;1.85;;
21492;SDS011;10908;50.690;4.400;2023-06-04T21:09:08;7.15;;;1.70;;
21492;SDS011;10908;50.690;4.400;2023-06-04T21:11:34;4.30;;;1.60;;
21492;SDS011;10908;50.690;4.400;2023-06-04T21:14:00;4.85;;;1.58;;
21492;SDS011;10908;50.690;4.400;2023-06-04T21:16:25;6.85;;;1.50;;
21492;SDS011;10908;50.690;4.400;2023-06-04T21:18:51;7.18;;;1.98;;
21492;SDS011;10908;50.690;4.400;2023-06-04T21:21:17;6.70;;;1.60;;
21492;SDS011;10908;50.690;4.400;2023-06-04T21:23:42;5.15;;;1.42;;
21492;SDS011;10908;50.690;4.400;2023-06-04T21:26:08;8.77;;;1.80;;
21492;SDS011;10908;50.690;4.400;2023-06-04T21:28:33;8.27;;;1.73;;
21492;SDS011;10908;50.690;4.400;2023-06-04T21:30:59;8.15;;;1.75;;
21492;SDS011;10908;50.690;4.400;2023-06-04T21:33:25;8.25;;;1.98;;
21492;SDS011;10908;50.690;4.400;2023-06-04T21:35:52;5.93;;;1.85;;
21492;SDS011;10908;50.690;4.400;2023-06-04T21:38:17;7.90;;;1.80;;
21492;SDS011;10908;50.690;4.400;2023-06-04T21:40:43;11.00;;;1.88;;
21492;SDS011;10908;50.690;4.400;2023-06-04T21:43:09;6.50;;;2.10;;
21492;SDS011;10908;50.690;4.400;2023-06-04T21:45:34;5.15;;;1.45;;
21492;SDS011;10908;50.690;4.400;2023-06-04T21:48:00;6.40;;;2.13;;
21492;SDS011;10908;50.690;4.400;2023-06-04T21:50:26;7.78;;;1.70;;
21492;SDS011;10908;50.690;4.400;2023-06-04T21:52:51;7.72;;;1.98;;
21492;SDS011;10908;50.690;4.400;2023-06-04T21:55:17;7.10;;;1.70;;
21492;SDS011;10908;50.690;4.400;2023-06-04T21:57:43;5.40;;;1.70;;
21492;SDS011;10908;50.690;4.400;2023-06-04T22:00:08;7.57;;;1.90;;
21492;SDS011;10908;50.690;4.400;2023-06-04T22:02:36;5.60;;;1.60;;
21492;SDS011;10908;50.690;4.400;2023-06-04T22:05:02;7.20;;;1.80;;
21492;SDS011;10908;50.690;4.400;2023-06-04T22:07:28;8.18;;;1.90;;
21492;SDS011;10908;50.690;4.400;2023-06-04T22:09:53;5.10;;;1.85;;
21492;SDS011;10908;50.690;4.400;2023-06-04T22:12:19;10.25;;;2.20;;
21492;SDS011;10908;50.690;4.400;2023-06-04T22:14:46;6.97;;;2.10;;
21492;SDS011;10908;50.690;4.400;2023-06-04T22:17:11;8.45;;;2.20;;
21492;SDS011;10908;50.690;4.400;2023-06-04T22:19:37;5.43;;;1.80;;
21492;SDS011;10908;50.690;4.400;2023-06-04T22:22:03;5.03;;;1.90;;
21492;SDS011;10908;50.690;4.400;2023-06-04T22:24:29;5.38;;;2.00;;
21492;SDS011;10908;50.690;4.400;2023-06-04T22:26:54;5.18;;;1.67;;
21492;SDS011;10908;50.690;4.400;2023-06-04T22:29:20;7.13;;;2.13;;
21492;SDS011;10908;50.690;4.400;2023-06-04T22:31:46;8.10;;;1.92;;
21492;SDS011;10908;50.690;4.400;2023-06-04T22:34:12;6.30;;;2.22;;
21492;SDS011;10908;50.690;4.400;2023-06-04T22:36:37;7.57;;;1.90;;
21492;SDS011;10908;50.690;4.400;2023-06-04T22:39:03;7.00;;;2.28;;
21492;SDS011;10908;50.690;4.400;2023-06-04T22:41:29;6.25;;;2.03;;
21492;SDS011;10908;50.690;4.400;2023-06-04T22:43:54;7.03;;;2.20;;
21492;SDS011;10908;50.690;4.400;2023-06-04T22:46:20;9.05;;;2.95;;
21492;SDS011;10908;50.690;4.400;2023-06-04T22:48:46;7.47;;;1.70;;
21492;SDS011;10908;50.690;4.400;2023-06-04T22:51:11;9.05;;;2.22;;
21492;SDS011;10908;50.690;4.400;2023-06-04T22:53:37;9.10;;;2.50;;
21492;SDS011;10908;50.690;4.400;2023-06-04T22:56:03;7.50;;;2.13;;
21492;SDS011;10908;50.690;4.400;2023-06-04T22:58:31;8.85;;;2.28;;
21492;SDS011;10908;50.690;4.400;2023-06-04T23:00:57;7.07;;;2.10;;
21492;SDS011;10908;50.690;4.400;2023-06-04T23:03:23;7.00;;;2.35;;
21492;SDS011;10908;50.690;4.400;2023-06-04T23:05:50;5.22;;;2.00;;
21492;SDS011;10908;50.690;4.400;2023-06-04T23:08:16;8.43;;;2.10;;
21492;SDS011;10908;50.690;4.400;2023-06-04T23:10:41;8.13;;;2.60;;
21492;SDS011;10908;50.690;4.400;2023-06-04T23:13:07;8.88;;;2.20;;
21492;SDS011;10908;50.690;4.400;2023-06-04T23:15:33;8.23;;;2.55;;
21492;SDS011;10908;50.690;4.400;2023-06-04T23:17:58;9.68;;;2.47;;
21492;SDS011;10908;50.690;4.400;2023-06-04T23:20:24;7.30;;;2.30;;
21492;SDS011;10908;50.690;4.400;2023-06-04T23:22:49;7.30;;;2.28;;
21492;SDS011;10908;50.690;4.400;2023-06-04T23:25:15;5.15;;;2.10;;
21492;SDS011;10908;50.690;4.400;2023-06-04T23:27:41;7.78;;;2.50;;
21492;SDS011;10908;50.690;4.400;2023-06-04T23:30:06;6.22;;;2.47;;
21492;SDS011;10908;50.690;4.400;2023-06-04T23:32:33;6.47;;;2.45;;
21492;SDS011;10908;50.690;4.400;2023-06-04T23:34:58;6.47;;;2.17;;
21492;SDS011;10908;50.690;4.400;2023-06-04T23:37:24;10.95;;;2.30;;
21492;SDS011;10908;50.690;4.400;2023-06-04T23:39:50;7.20;;;2.45;;
21492;SDS011;10908;50.690;4.400;2023-06-04T23:42:16;8.05;;;2.40;;
21492;SDS011;10908;50.690;4.400;2023-06-04T23:44:42;6.78;;;2.30;;
21492;SDS011;10908;50.690;4.400;2023-06-04T23:47:07;9.18;;;2.60;;
21492;SDS011;10908;50.690;4.400;2023-06-04T23:49:33;7.22;;;2.42;;
21492;SDS011;10908;50.690;4.400;2023-06-04T23:51:59;8.65;;;2.65;;
21492;SDS011;10908;50.690;4.400;2023-06-04T23:54:25;12.32;;;2.80;;
21492;SDS011;10908;50.690;4.400;2023-06-04T23:56:50;8.40;;;2.90;;
21492;SDS011;10908;50.690;4.400;2023-06-04T23:59:16;8.48;;;2.40;;
